ENBL/FDE METAR and TAF weather

Enter ICAO airport designator
Station Type Date Time Source
ENBL METAR 2021/07/27 20:50 UTC NOAA

ENBL 272050Z 35005KT 9000 FEW004 SCT010 BKN060 17/16 Q1008


Station Type Date Time Source
ENBL Decoded METAR 2021/07/27 20:50 UTC NOAA

Forde / Bringeland, Norway (ENBL) 61-27N 005-52E
Jul 27, 2021 - 04:50 PM EDT / 2021.07.27 2050 UTC
Wind: from the N (350 degrees) at 6 MPH (5 KT):0
Visibility: 5 mile(s):0
Sky conditions: mostly cloudy
Temperature: 62 F (17 C)
Dew Point: 60 F (16 C)
Relative Humidity: 93%
Pressure (altimeter): 29.77 in. Hg (1008 hPa)
ob: ENBL 272050Z 35005KT 9000 FEW004 SCT010 BKN060 17/16 Q1008
cycle: 21

Station Type Date Time Source
ENBL TAF UTC NOAA

Error!

Example: see airport list